sensor_id;sensor_type;location;lat;lon;timestamp;temperature;humidity
5222;DHT22;2630;52.036;8.514;2022-08-18T00:00:09;19.40;99.90
5222;DHT22;2630;52.036;8.514;2022-08-18T00:02:39;19.40;99.90
5222;DHT22;2630;52.036;8.514;2022-08-18T00:05:06;19.50;99.90
5222;DHT22;2630;52.036;8.514;2022-08-18T00:07:32;19.40;99.90
5222;DHT22;2630;52.036;8.514;2022-08-18T00:09:59;19.40;99.90
5222;DHT22;2630;52.036;8.514;2022-08-18T00:12:31;19.40;99.90
5222;DHT22;2630;52.036;8.514;2022-08-18T00:14:59;19.30;99.90
5222;DHT22;2630;52.036;8.514;2022-08-18T00:17:28;19.20;99.90
5222;DHT22;2630;52.036;8.514;2022-08-18T00:19:54;19.10;99.90
5222;DHT22;2630;52.036;8.514;2022-08-18T00:22:21;19.10;99.90
5222;DHT22;2630;52.036;8.514;2022-08-18T00:24:50;19.10;99.90
5222;DHT22;2630;52.036;8.514;2022-08-18T00:27:23;19.20;99.90
5222;DHT22;2630;52.036;8.514;2022-08-18T00:29:50;19.20;99.90
5222;DHT22;2630;52.036;8.514;2022-08-18T00:32:19;19.30;99.90
5222;DHT22;2630;52.036;8.514;2022-08-18T00:34:44;19.30;99.90
5222;DHT22;2630;52.036;8.514;2022-08-18T00:37:10;19.30;99.90
5222;DHT22;2630;52.036;8.514;2022-08-18T00:42:22;19.30;99.90
5222;DHT22;2630;52.036;8.514;2022-08-18T00:44:48;19.30;99.90
5222;DHT22;2630;52.036;8.514;2022-08-18T00:47:13;19.30;99.90
5222;DHT22;2630;52.036;8.514;2022-08-18T00:49:40;19.30;99.90
5222;DHT22;2630;52.036;8.514;2022-08-18T00:52:08;19.30;99.90
5222;DHT22;2630;52.036;8.514;2022-08-18T00:54:34;19.30;99.90
5222;DHT22;2630;52.036;8.514;2022-08-18T00:57:04;19.20;99.90
5222;DHT22;2630;52.036;8.514;2022-08-18T01:02:05;19.30;99.90
5222;DHT22;2630;52.036;8.514;2022-08-18T01:07:36;19.30;99.90
5222;DHT22;2630;52.036;8.514;2022-08-18T01:10:01;19.30;99.90
5222;DHT22;2630;52.036;8.514;2022-08-18T01:12:29;19.20;99.90
5222;DHT22;2630;52.036;8.514;2022-08-18T01:14:56;19.20;99.90
5222;DHT22;2630;52.036;8.514;2022-08-18T01:17:22;19.30;99.90
5222;DHT22;2630;52.036;8.514;2022-08-18T01:20:10;19.30;99.90
5222;DHT22;2630;52.036;8.514;2022-08-18T01:23:20;19.30;99.90
5222;DHT22;2630;52.036;8.514;2022-08-18T01:25:45;19.20;99.90
5222;DHT22;2630;52.036;8.514;2022-08-18T01:28:55;19.20;99.90
5222;DHT22;2630;52.036;8.514;2022-08-18T01:31:46;19.20;99.90
5222;DHT22;2630;52.036;8.514;2022-08-18T01:34:15;19.20;99.90
5222;DHT22;2630;52.036;8.514;2022-08-18T01:36:41;19.10;99.90
5222;DHT22;2630;52.036;8.514;2022-08-18T01:39:10;19.20;99.90
5222;DHT22;2630;52.036;8.514;2022-08-18T01:41:37;19.10;99.90
5222;DHT22;2630;52.036;8.514;2022-08-18T01:44:03;19.00;99.90
5222;DHT22;2630;52.036;8.514;2022-08-18T01:46:32;19.10;99.90
5222;DHT22;2630;52.036;8.514;2022-08-18T01:48:58;19.00;99.90
5222;DHT22;2630;52.036;8.514;2022-08-18T01:51:29;19.00;99.90
5222;DHT22;2630;52.036;8.514;2022-08-18T01:53:55;19.00;99.90
5222;DHT22;2630;52.036;8.514;2022-08-18T01:56:22;19.00;99.90
5222;DHT22;2630;52.036;8.514;2022-08-18T01:58:48;18.90;99.90
5222;DHT22;2630;52.036;8.514;2022-08-18T02:01:14;18.90;99.90
5222;DHT22;2630;52.036;8.514;2022-08-18T02:03:43;18.90;99.90
5222;DHT22;2630;52.036;8.514;2022-08-18T02:06:13;18.80;99.90
5222;DHT22;2630;52.036;8.514;2022-08-18T02:13:32;18.80;99.90
5222;DHT22;2630;52.036;8.514;2022-08-18T02:23:21;18.70;99.90
5222;DHT22;2630;52.036;8.514;2022-08-18T02:25:47;18.70;99.90
5222;DHT22;2630;52.036;8.514;2022-08-18T02:28:13;18.70;99.90
5222;DHT22;2630;52.036;8.514;2022-08-18T02:30:38;18.70;99.90
5222;DHT22;2630;52.036;8.514;2022-08-18T02:33:06;18.70;99.90
5222;DHT22;2630;52.036;8.514;2022-08-18T02:35:32;18.60;99.90
5222;DHT22;2630;52.036;8.514;2022-08-18T02:38:03;18.70;99.90
5222;DHT22;2630;52.036;8.514;2022-08-18T02:40:29;18.60;99.90
5222;DHT22;2630;52.036;8.514;2022-08-18T02:42:59;18.60;99.90
5222;DHT22;2630;52.036;8.514;2022-08-18T02:45:29;18.60;99.90
5222;DHT22;2630;52.036;8.514;2022-08-18T02:47:55;18.70;99.90
5222;DHT22;2630;52.036;8.514;2022-08-18T02:50:21;18.70;99.90
5222;DHT22;2630;52.036;8.514;2022-08-18T02:52:48;18.70;99.90
5222;DHT22;2630;52.036;8.514;2022-08-18T02:55:14;18.60;99.90
5222;DHT22;2630;52.036;8.514;2022-08-18T02:57:47;18.70;99.90
5222;DHT22;2630;52.036;8.514;2022-08-18T03:00:14;18.70;99.90
5222;DHT22;2630;52.036;8.514;2022-08-18T03:02:48;18.70;99.90
5222;DHT22;2630;52.036;8.514;2022-08-18T03:05:14;18.80;99.90
5222;DHT22;2630;52.036;8.514;2022-08-18T03:07:40;18.80;99.90
5222;DHT22;2630;52.036;8.514;2022-08-18T03:10:07;18.80;99.90
5222;DHT22;2630;52.036;8.514;2022-08-18T03:14:58;18.80;99.90
5222;DHT22;2630;52.036;8.514;2022-08-18T03:17:26;18.70;99.90
5222;DHT22;2630;52.036;8.514;2022-08-18T03:19:52;18.80;99.90
5222;DHT22;2630;52.036;8.514;2022-08-18T03:22:17;18.80;99.90
5222;DHT22;2630;52.036;8.514;2022-08-18T03:24:43;18.80;99.90
5222;DHT22;2630;52.036;8.514;2022-08-18T03:27:09;18.70;99.90
5222;DHT22;2630;52.036;8.514;2022-08-18T03:29:35;18.70;99.90
5222;DHT22;2630;52.036;8.514;2022-08-18T03:32:02;18.70;99.90
5222;DHT22;2630;52.036;8.514;2022-08-18T03:34:29;18.70;99.90
5222;DHT22;2630;52.036;8.514;2022-08-18T03:36:54;18.60;99.90
5222;DHT22;2630;52.036;8.514;2022-08-18T03:39:21;18.60;99.90
5222;DHT22;2630;52.036;8.514;2022-08-18T03:41:51;18.60;99.90
5222;DHT22;2630;52.036;8.514;2022-08-18T03:46:48;18.50;99.90
5222;DHT22;2630;52.036;8.514;2022-08-18T03:49:14;18.60;99.90
5222;DHT22;2630;52.036;8.514;2022-08-18T03:51:43;18.50;99.90
5222;DHT22;2630;52.036;8.514;2022-08-18T03:54:11;18.50;99.90
5222;DHT22;2630;52.036;8.514;2022-08-18T03:56:38;18.50;99.90
5222;DHT22;2630;52.036;8.514;2022-08-18T03:59:11;18.60;99.90
5222;DHT22;2630;52.036;8.514;2022-08-18T04:01:39;18.70;99.90
5222;DHT22;2630;52.036;8.514;2022-08-18T04:04:07;18.70;99.90
5222;DHT22;2630;52.036;8.514;2022-08-18T04:06:46;18.70;99.90
5222;DHT22;2630;52.036;8.514;2022-08-18T04:09:15;18.70;99.90
5222;DHT22;2630;52.036;8.514;2022-08-18T04:16:35;18.70;99.90
5222;DHT22;2630;52.036;8.514;2022-08-18T04:19:03;18.70;99.90
5222;DHT22;2630;52.036;8.514;2022-08-18T04:21:32;18.80;99.90
5222;DHT22;2630;52.036;8.514;2022-08-18T04:23:58;18.80;99.90
5222;DHT22;2630;52.036;8.514;2022-08-18T04:26:33;18.80;99.90
5222;DHT22;2630;52.036;8.514;2022-08-18T04:28:59;18.80;99.90
5222;DHT22;2630;52.036;8.514;2022-08-18T04:31:28;18.80;99.90
5222;DHT22;2630;52.036;8.514;2022-08-18T04:33:56;18.80;99.90
5222;DHT22;2630;52.036;8.514;2022-08-18T04:36:22;18.80;99.90
5222;DHT22;2630;52.036;8.514;2022-08-18T04:38:48;18.80;99.90
5222;DHT22;2630;52.036;8.514;2022-08-18T04:41:14;18.80;99.90
5222;DHT22;2630;52.036;8.514;2022-08-18T04:43:40;18.90;99.90
5222;DHT22;2630;52.036;8.514;2022-08-18T04:46:06;18.90;99.90
5222;DHT22;2630;52.036;8.514;2022-08-18T04:48:41;18.80;99.90
5222;DHT22;2630;52.036;8.514;2022-08-18T04:51:13;18.90;99.90
5222;DHT22;2630;52.036;8.514;2022-08-18T04:53:40;18.90;99.90
5222;DHT22;2630;52.036;8.514;2022-08-18T04:56:17;18.90;99.90
5222;DHT22;2630;52.036;8.514;2022-08-18T04:58:47;18.90;99.90
5222;DHT22;2630;52.036;8.514;2022-08-18T05:01:17;18.80;99.90
5222;DHT22;2630;52.036;8.514;2022-08-18T05:06:09;18.70;99.90
5222;DHT22;2630;52.036;8.514;2022-08-18T05:13:27;18.70;99.90
5222;DHT22;2630;52.036;8.514;2022-08-18T05:15:57;18.70;99.90
5222;DHT22;2630;52.036;8.514;2022-08-18T05:18:23;18.70;99.90
5222;DHT22;2630;52.036;8.514;2022-08-18T05:20:51;18.70;99.90
5222;DHT22;2630;52.036;8.514;2022-08-18T05:23:17;18.80;99.90
5222;DHT22;2630;52.036;8.514;2022-08-18T05:25:43;18.80;99.90
5222;DHT22;2630;52.036;8.514;2022-08-18T05:28:09;18.80;99.90
5222;DHT22;2630;52.036;8.514;2022-08-18T05:33:02;19.00;99.90
5222;DHT22;2630;52.036;8.514;2022-08-18T05:35:33;19.10;99.90
5222;DHT22;2630;52.036;8.514;2022-08-18T05:38:22;19.20;99.90
5222;DHT22;2630;52.036;8.514;2022-08-18T05:43:45;19.30;99.90
5222;DHT22;2630;52.036;8.514;2022-08-18T05:46:11;19.40;99.90
5222;DHT22;2630;52.036;8.514;2022-08-18T05:48:37;19.50;99.90
5222;DHT22;2630;52.036;8.514;2022-08-18T05:51:16;19.50;99.90
5222;DHT22;2630;52.036;8.514;2022-08-18T05:53:44;19.60;99.90
5222;DHT22;2630;52.036;8.514;2022-08-18T05:56:32;19.60;99.90
5222;DHT22;2630;52.036;8.514;2022-08-18T05:59:15;19.70;99.90
5222;DHT22;2630;52.036;8.514;2022-08-18T06:01:45;19.90;99.90
5222;DHT22;2630;52.036;8.514;2022-08-18T06:07:15;20.20;99.90
5222;DHT22;2630;52.036;8.514;2022-08-18T06:09:47;20.30;99.90
5222;DHT22;2630;52.036;8.514;2022-08-18T06:12:43;20.60;99.90
5222;DHT22;2630;52.036;8.514;2022-08-18T06:20:27;20.80;99.90
5222;DHT22;2630;52.036;8.514;2022-08-18T06:23:12;20.80;99.90
5222;DHT22;2630;52.036;8.514;2022-08-18T06:28:50;20.90;99.90
5222;DHT22;2630;52.036;8.514;2022-08-18T06:31:44;20.90;99.90
5222;DHT22;2630;52.036;8.514;2022-08-18T06:37:05;20.80;99.90
5222;DHT22;2630;52.036;8.514;2022-08-18T06:39:45;20.70;99.90
5222;DHT22;2630;52.036;8.514;2022-08-18T06:42:11;20.80;99.90
5222;DHT22;2630;52.036;8.514;2022-08-18T06:44:44;20.80;99.90
5222;DHT22;2630;52.036;8.514;2022-08-18T06:47:47;20.80;99.90
5222;DHT22;2630;52.036;8.514;2022-08-18T06:52:53;21.00;99.90
5222;DHT22;2630;52.036;8.514;2022-08-18T06:58:46;21.00;99.90
5222;DHT22;2630;52.036;8.514;2022-08-18T07:06:04;21.50;99.90
5222;DHT22;2630;52.036;8.514;2022-08-18T07:11:18;22.00;99.90
5222;DHT22;2630;52.036;8.514;2022-08-18T07:13:53;22.10;99.90
5222;DHT22;2630;52.036;8.514;2022-08-18T07:18:48;22.60;99.90
5222;DHT22;2630;52.036;8.514;2022-08-18T07:21:30;22.50;99.90
5222;DHT22;2630;52.036;8.514;2022-08-18T07:30:10;23.00;99.90
5222;DHT22;2630;52.036;8.514;2022-08-18T07:32:38;23.10;99.90
5222;DHT22;2630;52.036;8.514;2022-08-18T07:35:06;23.30;99.90
5222;DHT22;2630;52.036;8.514;2022-08-18T07:37:42;23.60;99.90
5222;DHT22;2630;52.036;8.514;2022-08-18T07:43:17;23.90;99.90
5222;DHT22;2630;52.036;8.514;2022-08-18T07:45:45;24.00;99.90
5222;DHT22;2630;52.036;8.514;2022-08-18T07:51:04;23.90;99.90
5222;DHT22;2630;52.036;8.514;2022-08-18T07:59:11;24.20;99.90
5222;DHT22;2630;52.036;8.514;2022-08-18T08:01:49;24.30;99.90
5222;DHT22;2630;52.036;8.514;2022-08-18T08:04:39;24.50;99.90
5222;DHT22;2630;52.036;8.514;2022-08-18T08:07:14;24.50;99.90
5222;DHT22;2630;52.036;8.514;2022-08-18T08:12:28;24.50;99.90
5222;DHT22;2630;52.036;8.514;2022-08-18T08:20:14;24.60;99.90
5222;DHT22;2630;52.036;8.514;2022-08-18T08:23:00;24.70;99.90
5222;DHT22;2630;52.036;8.514;2022-08-18T08:31:06;25.00;99.90
5222;DHT22;2630;52.036;8.514;2022-08-18T08:33:57;24.90;99.90
5222;DHT22;2630;52.036;8.514;2022-08-18T08:36:33;25.00;99.90
5222;DHT22;2630;52.036;8.514;2022-08-18T08:39:01;25.00;99.90
5222;DHT22;2630;52.036;8.514;2022-08-18T08:44:13;25.20;99.90
5222;DHT22;2630;52.036;8.514;2022-08-18T08:52:11;25.50;99.90
5222;DHT22;2630;52.036;8.514;2022-08-18T08:54:57;25.30;99.90
5222;DHT22;2630;52.036;8.514;2022-08-18T08:59:54;25.40;99.90
5222;DHT22;2630;52.036;8.514;2022-08-18T09:23:45;24.30;99.90
5222;DHT22;2630;52.036;8.514;2022-08-18T09:26:48;24.20;99.90
5222;DHT22;2630;52.036;8.514;2022-08-18T09:29:44;24.10;99.90
5222;DHT22;2630;52.036;8.514;2022-08-18T09:32:32;24.00;99.90
5222;DHT22;2630;52.036;8.514;2022-08-18T09:40:56;23.80;99.90
5222;DHT22;2630;52.036;8.514;2022-08-18T09:55:00;23.90;99.90
5222;DHT22;2630;52.036;8.514;2022-08-18T09:57:28;24.60;99.90
5222;DHT22;2630;52.036;8.514;2022-08-18T10:00:26;25.10;99.90
5222;DHT22;2630;52.036;8.514;2022-08-18T10:08:22;26.10;99.90
5222;DHT22;2630;52.036;8.514;2022-08-18T10:19:56;25.40;99.90
5222;DHT22;2630;52.036;8.514;2022-08-18T10:22:43;25.00;99.90
5222;DHT22;2630;52.036;8.514;2022-08-18T10:25:11;24.90;99.90
5222;DHT22;2630;52.036;8.514;2022-08-18T10:32:55;24.50;99.90
5222;DHT22;2630;52.036;8.514;2022-08-18T10:41:01;24.60;99.90
5222;DHT22;2630;52.036;8.514;2022-08-18T10:43:40;24.60;99.90
5222;DHT22;2630;52.036;8.514;2022-08-18T11:00:14;24.90;99.90
5222;DHT22;2630;52.036;8.514;2022-08-18T11:02:54;24.90;99.90
5222;DHT22;2630;52.036;8.514;2022-08-18T11:05:25;24.70;99.90
5222;DHT22;2630;52.036;8.514;2022-08-18T11:07:59;24.70;99.90
5222;DHT22;2630;52.036;8.514;2022-08-18T11:10:43;24.70;99.90
5222;DHT22;2630;52.036;8.514;2022-08-18T11:13:41;24.70;99.90
5222;DHT22;2630;52.036;8.514;2022-08-18T11:24:12;23.80;99.90
5222;DHT22;2630;52.036;8.514;2022-08-18T11:34:43;22.90;99.90
5222;DHT22;2630;52.036;8.514;2022-08-18T11:39:51;22.90;99.90
5222;DHT22;2630;52.036;8.514;2022-08-18T11:42:19;22.90;99.90
5222;DHT22;2630;52.036;8.514;2022-08-18T11:44:52;23.10;99.90
5222;DHT22;2630;52.036;8.514;2022-08-18T11:47:20;23.20;99.90
5222;DHT22;2630;52.036;8.514;2022-08-18T11:50:07;23.40;99.90
5222;DHT22;2630;52.036;8.514;2022-08-18T11:52:47;23.70;99.90
5222;DHT22;2630;52.036;8.514;2022-08-18T11:55:35;23.90;99.90
5222;DHT22;2630;52.036;8.514;2022-08-18T12:03:21;24.70;99.90
5222;DHT22;2630;52.036;8.514;2022-08-18T12:06:08;25.20;99.90
5222;DHT22;2630;52.036;8.514;2022-08-18T12:08:46;25.40;99.90
5222;DHT22;2630;52.036;8.514;2022-08-18T12:11:19;25.50;99.90
5222;DHT22;2630;52.036;8.514;2022-08-18T12:16:36;25.50;99.90
5222;DHT22;2630;52.036;8.514;2022-08-18T12:19:00;25.70;99.90
5222;DHT22;2630;52.036;8.514;2022-08-18T12:21:26;25.90;99.90
5222;DHT22;2630;52.036;8.514;2022-08-18T12:23:51;26.10;99.90
5222;DHT22;2630;52.036;8.514;2022-08-18T12:26:17;26.30;99.90
5222;DHT22;2630;52.036;8.514;2022-08-18T12:28:43;26.30;99.90
5222;DHT22;2630;52.036;8.514;2022-08-18T12:31:08;26.50;99.90
5222;DHT22;2630;52.036;8.514;2022-08-18T12:33:35;26.30;99.90
5222;DHT22;2630;52.036;8.514;2022-08-18T12:36:02;26.10;99.90
5222;DHT22;2630;52.036;8.514;2022-08-18T12:38:27;26.10;99.90
5222;DHT22;2630;52.036;8.514;2022-08-18T12:40:53;26.10;99.90
5222;DHT22;2630;52.036;8.514;2022-08-18T12:45:45;25.70;99.90
5222;DHT22;2630;52.036;8.514;2022-08-18T12:48:11;25.70;99.90
5222;DHT22;2630;52.036;8.514;2022-08-18T12:50:37;25.60;99.90
5222;DHT22;2630;52.036;8.514;2022-08-18T12:53:03;25.60;99.90
5222;DHT22;2630;52.036;8.514;2022-08-18T12:55:37;25.60;99.90
5222;DHT22;2630;52.036;8.514;2022-08-18T12:58:04;25.70;99.90
5222;DHT22;2630;52.036;8.514;2022-08-18T13:00:30;25.70;99.90
5222;DHT22;2630;52.036;8.514;2022-08-18T13:02:56;25.80;99.90
5222;DHT22;2630;52.036;8.514;2022-08-18T13:05:21;25.70;99.90
5222;DHT22;2630;52.036;8.514;2022-08-18T13:07:47;25.70;99.90
5222;DHT22;2630;52.036;8.514;2022-08-18T13:10:13;25.70;99.90
5222;DHT22;2630;52.036;8.514;2022-08-18T13:12:38;25.60;99.90
5222;DHT22;2630;52.036;8.514;2022-08-18T13:15:04;25.60;99.90
5222;DHT22;2630;52.036;8.514;2022-08-18T13:17:34;25.50;99.90
5222;DHT22;2630;52.036;8.514;2022-08-18T13:20:03;25.60;99.90
5222;DHT22;2630;52.036;8.514;2022-08-18T13:22:29;25.50;99.90
5222;DHT22;2630;52.036;8.514;2022-08-18T13:24:55;25.40;99.90
5222;DHT22;2630;52.036;8.514;2022-08-18T13:27:20;25.50;99.90
5222;DHT22;2630;52.036;8.514;2022-08-18T13:29:47;25.50;99.90
5222;DHT22;2630;52.036;8.514;2022-08-18T13:32:12;25.50;99.90
5222;DHT22;2630;52.036;8.514;2022-08-18T13:34:40;25.50;99.90
5222;DHT22;2630;52.036;8.514;2022-08-18T13:37:05;25.50;99.90
5222;DHT22;2630;52.036;8.514;2022-08-18T13:39:31;25.40;99.90
5222;DHT22;2630;52.036;8.514;2022-08-18T13:41:57;25.20;99.90
5222;DHT22;2630;52.036;8.514;2022-08-18T13:44:22;25.20;99.90
5222;DHT22;2630;52.036;8.514;2022-08-18T13:46:49;25.30;99.90
5222;DHT22;2630;52.036;8.514;2022-08-18T13:49:21;25.40;99.90
5222;DHT22;2630;52.036;8.514;2022-08-18T13:51:48;25.60;99.90
5222;DHT22;2630;52.036;8.514;2022-08-18T13:54:21;25.90;99.90
5222;DHT22;2630;52.036;8.514;2022-08-18T13:56:47;26.10;99.90
5222;DHT22;2630;52.036;8.514;2022-08-18T13:59:14;26.10;99.90
5222;DHT22;2630;52.036;8.514;2022-08-18T14:01:41;26.20;99.90
5222;DHT22;2630;52.036;8.514;2022-08-18T14:06:33;26.50;99.90
5222;DHT22;2630;52.036;8.514;2022-08-18T14:08:59;26.60;99.90
5222;DHT22;2630;52.036;8.514;2022-08-18T14:11:28;26.80;99.90
5222;DHT22;2630;52.036;8.514;2022-08-18T14:13:54;26.80;99.90
5222;DHT22;2630;52.036;8.514;2022-08-18T14:16:20;26.90;99.90
5222;DHT22;2630;52.036;8.514;2022-08-18T14:18:46;26.90;99.90
5222;DHT22;2630;52.036;8.514;2022-08-18T14:21:38;26.90;99.90
5222;DHT22;2630;52.036;8.514;2022-08-18T14:24:23;27.20;99.90
5222;DHT22;2630;52.036;8.514;2022-08-18T14:27:07;27.50;99.90
5222;DHT22;2630;52.036;8.514;2022-08-18T14:29:32;27.70;99.90
5222;DHT22;2630;52.036;8.514;2022-08-18T14:31:58;27.80;99.90
5222;DHT22;2630;52.036;8.514;2022-08-18T14:34:24;27.70;99.90
5222;DHT22;2630;52.036;8.514;2022-08-18T14:36:50;27.60;99.90
5222;DHT22;2630;52.036;8.514;2022-08-18T14:39:15;27.50;99.90
5222;DHT22;2630;52.036;8.514;2022-08-18T14:41:41;27.40;99.90
5222;DHT22;2630;52.036;8.514;2022-08-18T14:44:06;27.50;99.90
5222;DHT22;2630;52.036;8.514;2022-08-18T14:46:32;27.40;99.90
5222;DHT22;2630;52.036;8.514;2022-08-18T14:48:58;27.40;99.90
5222;DHT22;2630;52.036;8.514;2022-08-18T14:51:24;27.40;99.90
5222;DHT22;2630;52.036;8.514;2022-08-18T14:53:51;27.40;99.90
5222;DHT22;2630;52.036;8.514;2022-08-18T14:56:17;27.30;99.90
5222;DHT22;2630;52.036;8.514;2022-08-18T14:58:43;27.30;99.90
5222;DHT22;2630;52.036;8.514;2022-08-18T15:01:09;27.30;99.90
5222;DHT22;2630;52.036;8.514;2022-08-18T15:03:36;27.30;99.90
5222;DHT22;2630;52.036;8.514;2022-08-18T15:06:03;27.10;99.90
5222;DHT22;2630;52.036;8.514;2022-08-18T15:08:30;27.10;99.90
5222;DHT22;2630;52.036;8.514;2022-08-18T15:10:56;27.10;99.90
5222;DHT22;2630;52.036;8.514;2022-08-18T15:13:23;27.10;99.90
5222;DHT22;2630;52.036;8.514;2022-08-18T15:15:50;27.10;99.90
5222;DHT22;2630;52.036;8.514;2022-08-18T15:18:15;27.20;99.90
5222;DHT22;2630;52.036;8.514;2022-08-18T15:20:43;27.20;99.90
5222;DHT22;2630;52.036;8.514;2022-08-18T15:23:27;27.20;99.90
5222;DHT22;2630;52.036;8.514;2022-08-18T15:26:11;27.20;99.90
5222;DHT22;2630;52.036;8.514;2022-08-18T15:28:37;27.00;99.90
5222;DHT22;2630;52.036;8.514;2022-08-18T15:31:04;27.10;99.90
5222;DHT22;2630;52.036;8.514;2022-08-18T15:33:30;27.00;99.90
5222;DHT22;2630;52.036;8.514;2022-08-18T15:38:22;27.00;99.90
5222;DHT22;2630;52.036;8.514;2022-08-18T15:40:52;27.00;99.90
5222;DHT22;2630;52.036;8.514;2022-08-18T15:43:18;27.00;99.90
5222;DHT22;2630;52.036;8.514;2022-08-18T15:45:45;27.00;99.90
5222;DHT22;2630;52.036;8.514;2022-08-18T15:48:17;27.10;99.90
5222;DHT22;2630;52.036;8.514;2022-08-18T15:50:44;27.10;99.90
5222;DHT22;2630;52.036;8.514;2022-08-18T15:53:14;27.10;99.90
5222;DHT22;2630;52.036;8.514;2022-08-18T15:55:41;27.00;99.90
5222;DHT22;2630;52.036;8.514;2022-08-18T15:58:09;27.00;99.90
5222;DHT22;2630;52.036;8.514;2022-08-18T16:00:35;26.90;99.90
5222;DHT22;2630;52.036;8.514;2022-08-18T16:03:05;26.80;99.90
5222;DHT22;2630;52.036;8.514;2022-08-18T16:05:36;26.80;99.90
5222;DHT22;2630;52.036;8.514;2022-08-18T16:08:03;26.70;99.90
5222;DHT22;2630;52.036;8.514;2022-08-18T16:10:32;26.50;99.90
5222;DHT22;2630;52.036;8.514;2022-08-18T16:12:58;26.50;99.90
5222;DHT22;2630;52.036;8.514;2022-08-18T16:15:25;26.40;99.90
5222;DHT22;2630;52.036;8.514;2022-08-18T16:17:53;26.40;99.90
5222;DHT22;2630;52.036;8.514;2022-08-18T16:20:20;26.40;99.90
5222;DHT22;2630;52.036;8.514;2022-08-18T16:22:48;26.50;99.90
5222;DHT22;2630;52.036;8.514;2022-08-18T16:25:15;26.40;99.90
5222;DHT22;2630;52.036;8.514;2022-08-18T16:27:41;26.30;99.90
5222;DHT22;2630;52.036;8.514;2022-08-18T16:30:13;26.30;99.90
5222;DHT22;2630;52.036;8.514;2022-08-18T16:32:39;26.20;99.90
5222;DHT22;2630;52.036;8.514;2022-08-18T16:37:31;26.10;99.90
5222;DHT22;2630;52.036;8.514;2022-08-18T16:39:57;26.00;99.90
5222;DHT22;2630;52.036;8.514;2022-08-18T16:44:48;25.90;99.90
5222;DHT22;2630;52.036;8.514;2022-08-18T16:47:14;25.80;99.90
5222;DHT22;2630;52.036;8.514;2022-08-18T16:49:42;25.70;99.90
5222;DHT22;2630;52.036;8.514;2022-08-18T16:52:10;25.60;99.90
5222;DHT22;2630;52.036;8.514;2022-08-18T16:54:36;25.50;99.90
5222;DHT22;2630;52.036;8.514;2022-08-18T16:57:02;25.40;99.90
5222;DHT22;2630;52.036;8.514;2022-08-18T16:59:27;25.50;99.90
5222;DHT22;2630;52.036;8.514;2022-08-18T17:02:11;25.60;99.90
5222;DHT22;2630;52.036;8.514;2022-08-18T17:04:55;25.60;99.90
5222;DHT22;2630;52.036;8.514;2022-08-18T17:09:52;25.60;99.90
5222;DHT22;2630;52.036;8.514;2022-08-18T17:14:44;25.50;99.90
5222;DHT22;2630;52.036;8.514;2022-08-18T17:17:09;25.40;99.90
5222;DHT22;2630;52.036;8.514;2022-08-18T17:19:35;25.40;99.90
5222;DHT22;2630;52.036;8.514;2022-08-18T17:22:02;25.30;99.90
5222;DHT22;2630;52.036;8.514;2022-08-18T17:24:28;25.30;99.90
5222;DHT22;2630;52.036;8.514;2022-08-18T17:27:05;25.20;99.90
5222;DHT22;2630;52.036;8.514;2022-08-18T17:30:04;25.20;99.90
5222;DHT22;2630;52.036;8.514;2022-08-18T17:35:12;25.10;99.90
5222;DHT22;2630;52.036;8.514;2022-08-18T17:37:44;25.10;99.90
5222;DHT22;2630;52.036;8.514;2022-08-18T17:40:22;25.20;99.90
5222;DHT22;2630;52.036;8.514;2022-08-18T17:42:49;25.10;99.90
5222;DHT22;2630;52.036;8.514;2022-08-18T17:45:16;25.10;99.90
5222;DHT22;2630;52.036;8.514;2022-08-18T17:48:09;25.10;99.90
5222;DHT22;2630;52.036;8.514;2022-08-18T17:50:58;25.00;99.90
5222;DHT22;2630;52.036;8.514;2022-08-18T17:53:43;24.90;99.90
5222;DHT22;2630;52.036;8.514;2022-08-18T17:56:16;24.80;99.90
5222;DHT22;2630;52.036;8.514;2022-08-18T17:58:54;24.80;99.90
5222;DHT22;2630;52.036;8.514;2022-08-18T18:01:23;24.60;99.90
5222;DHT22;2630;52.036;8.514;2022-08-18T18:03:50;24.60;99.90
5222;DHT22;2630;52.036;8.514;2022-08-18T18:09:03;24.50;99.90
5222;DHT22;2630;52.036;8.514;2022-08-18T18:11:35;24.50;99.90
5222;DHT22;2630;52.036;8.514;2022-08-18T18:14:22;24.50;99.90
5222;DHT22;2630;52.036;8.514;2022-08-18T18:22:19;24.30;99.90
5222;DHT22;2630;52.036;8.514;2022-08-18T18:24:54;24.20;99.90
5222;DHT22;2630;52.036;8.514;2022-08-18T18:27:28;24.00;99.90
5222;DHT22;2630;52.036;8.514;2022-08-18T18:29:59;24.00;99.90
5222;DHT22;2630;52.036;8.514;2022-08-18T18:32:32;23.90;99.90
5222;DHT22;2630;52.036;8.514;2022-08-18T18:35:14;23.80;99.90
5222;DHT22;2630;52.036;8.514;2022-08-18T18:40:41;23.60;99.90
5222;DHT22;2630;52.036;8.514;2022-08-18T18:43:24;23.50;99.90
5222;DHT22;2630;52.036;8.514;2022-08-18T18:51:21;23.30;99.90
5222;DHT22;2630;52.036;8.514;2022-08-18T18:56:50;23.10;99.90
5222;DHT22;2630;52.036;8.514;2022-08-18T19:05:39;23.00;99.90
5222;DHT22;2630;52.036;8.514;2022-08-18T19:13:17;22.90;99.90
5222;DHT22;2630;52.036;8.514;2022-08-18T19:18:37;22.70;99.90
5222;DHT22;2630;52.036;8.514;2022-08-18T19:21:16;22.70;99.90
5222;DHT22;2630;52.036;8.514;2022-08-18T19:24:11;22.60;99.90
5222;DHT22;2630;52.036;8.514;2022-08-18T19:26:43;22.60;99.90
5222;DHT22;2630;52.036;8.514;2022-08-18T19:29:15;22.50;99.90
5222;DHT22;2630;52.036;8.514;2022-08-18T19:32:15;22.50;99.90
5222;DHT22;2630;52.036;8.514;2022-08-18T19:34:41;22.50;99.90
5222;DHT22;2630;52.036;8.514;2022-08-18T19:40:28;22.40;99.90
5222;DHT22;2630;52.036;8.514;2022-08-18T19:42:51;22.40;99.90
5222;DHT22;2630;52.036;8.514;2022-08-18T19:51:14;22.10;99.90
5222;DHT22;2630;52.036;8.514;2022-08-18T20:03:23;21.90;99.90
5222;DHT22;2630;52.036;8.514;2022-08-18T20:18:49;21.40;99.90
5222;DHT22;2630;52.036;8.514;2022-08-18T20:24:48;21.30;99.90
5222;DHT22;2630;52.036;8.514;2022-08-18T20:29:42;21.30;99.90
5222;DHT22;2630;52.036;8.514;2022-08-18T20:34:49;21.20;99.90
5222;DHT22;2630;52.036;8.514;2022-08-18T20:37:23;21.30;99.90
5222;DHT22;2630;52.036;8.514;2022-08-18T20:39:54;21.30;99.90
5222;DHT22;2630;52.036;8.514;2022-08-18T20:58:35;21.30;99.90
5222;DHT22;2630;52.036;8.514;2022-08-18T21:03:43;21.30;99.90
5222;DHT22;2630;52.036;8.514;2022-08-18T21:08:38;21.30;99.90
5222;DHT22;2630;52.036;8.514;2022-08-18T21:16:12;21.20;99.90
5222;DHT22;2630;52.036;8.514;2022-08-18T21:18:48;21.10;99.90
5222;DHT22;2630;52.036;8.514;2022-08-18T21:21:26;21.10;99.90
5222;DHT22;2630;52.036;8.514;2022-08-18T21:23:57;21.00;99.90
5222;DHT22;2630;52.036;8.514;2022-08-18T21:28:53;21.10;99.90
5222;DHT22;2630;52.036;8.514;2022-08-18T21:33:55;21.00;99.90
5222;DHT22;2630;52.036;8.514;2022-08-18T21:36:22;21.00;99.90
5222;DHT22;2630;52.036;8.514;2022-08-18T21:38:52;21.00;99.90
5222;DHT22;2630;52.036;8.514;2022-08-18T21:41:21;21.00;99.90
5222;DHT22;2630;52.036;8.514;2022-08-18T21:43:51;21.00;99.90
5222;DHT22;2630;52.036;8.514;2022-08-18T21:48:53;21.00;99.90
5222;DHT22;2630;52.036;8.514;2022-08-18T21:51:28;21.00;99.90
5222;DHT22;2630;52.036;8.514;2022-08-18T21:53:57;20.90;99.90
5222;DHT22;2630;52.036;8.514;2022-08-18T21:56:27;20.90;99.90
5222;DHT22;2630;52.036;8.514;2022-08-18T22:01:45;20.80;99.90
5222;DHT22;2630;52.036;8.514;2022-08-18T22:04:33;20.80;99.90
5222;DHT22;2630;52.036;8.514;2022-08-18T22:07:03;20.80;99.90
5222;DHT22;2630;52.036;8.514;2022-08-18T22:09:33;20.80;99.90
5222;DHT22;2630;52.036;8.514;2022-08-18T22:15:08;20.70;99.90
5222;DHT22;2630;52.036;8.514;2022-08-18T22:25:51;20.70;99.90